createdAt,value
2018-12-01T00:00:04.757Z,975.28
2018-12-01T00:01:04.483Z,975.31
2018-12-01T00:02:04.961Z,975.28
2018-12-01T00:03:05.007Z,975.17
2018-12-01T00:04:06.985Z,975.33
2018-12-01T00:05:04.859Z,975.17
2018-12-01T00:06:04.906Z,975.20
2018-12-01T00:07:04.872Z,975.31
2018-12-01T00:08:05.374Z,975.17
2018-12-01T00:09:04.468Z,975.23
2018-12-01T00:10:05.137Z,975.26
2018-12-01T00:11:04.971Z,975.26
2018-12-01T00:12:04.457Z,975.20
2018-12-01T00:13:04.633Z,975.17
2018-12-01T00:14:04.870Z,975.33
2018-12-01T00:15:04.734Z,975.23
2018-12-01T00:16:04.488Z,975.36
2018-12-01T00:17:04.950Z,975.44
2018-12-01T00:18:05.347Z,975.36
2018-12-01T00:19:04.785Z,975.26
2018-12-01T00:20:04.459Z,975.33
2018-12-01T00:21:04.806Z,975.39
2018-12-01T00:22:05.261Z,975.29
2018-12-01T00:23:04.775Z,975.33
2018-12-01T00:24:04.911Z,975.23
2018-12-01T00:25:05.361Z,975.29
2018-12-01T00:26:04.959Z,975.12
2018-12-01T00:27:04.465Z,975.42
2018-12-01T00:28:09.597Z,975.12
2018-12-01T00:29:05.106Z,975.29
2018-12-01T00:30:05.074Z,975.17
2018-12-01T00:31:04.519Z,975.23
2018-12-01T00:32:04.591Z,975.36
2018-12-01T00:33:05.063Z,975.33
2018-12-01T00:34:04.580Z,975.33
2018-12-01T00:35:05.212Z,975.29
2018-12-01T00:36:04.591Z,975.33
2018-12-01T00:37:04.570Z,975.29
2018-12-01T00:38:04.973Z,975.36
2018-12-01T00:39:04.497Z,975.36
2018-12-01T00:40:04.645Z,975.36
2018-12-01T00:41:04.600Z,975.21
2018-12-01T00:42:05.041Z,975.29
2018-12-01T00:43:04.504Z,975.39
2018-12-01T00:44:04.687Z,975.26
2018-12-01T00:45:05.014Z,975.37
2018-12-01T00:46:07.049Z,975.29
2018-12-01T00:47:04.896Z,975.26
2018-12-01T00:48:09.732Z,975.29
2018-12-01T00:49:05.085Z,975.24
2018-12-01T00:50:05.338Z,975.26
2018-12-01T00:51:05.280Z,975.51
2018-12-01T00:52:04.664Z,975.27
2018-12-01T00:53:04.911Z,975.27
2018-12-01T00:54:04.530Z,975.37
2018-12-01T00:55:04.507Z,975.40
2018-12-01T00:56:04.695Z,975.29
2018-12-01T00:57:04.662Z,975.42
2018-12-01T00:58:04.877Z,975.40
2018-12-01T00:59:04.749Z,975.34
2018-12-01T01:00:04.928Z,975.39
2018-12-01T01:01:04.512Z,975.37
2018-12-01T01:02:04.798Z,975.34
2018-12-01T01:03:05.208Z,975.53
2018-12-01T01:04:04.638Z,975.32
2018-12-01T01:05:04.685Z,975.32
2018-12-01T01:06:04.819Z,975.42
2018-12-01T01:07:04.719Z,975.27
2018-12-01T01:08:04.866Z,975.29
2018-12-01T01:09:04.580Z,975.34
2018-12-01T01:10:04.698Z,975.45
2018-12-01T01:11:04.784Z,975.39
2018-12-01T01:12:04.918Z,975.32
2018-12-01T01:13:05.305Z,975.48
2018-12-01T01:14:04.848Z,975.39
2018-12-01T01:15:04.810Z,975.45
2018-12-01T01:16:05.453Z,975.42
2018-12-01T01:17:04.920Z,975.45
2018-12-01T01:18:04.582Z,975.51
2018-12-01T01:19:04.914Z,975.45
2018-12-01T01:20:05.297Z,975.48
2018-12-01T01:21:04.873Z,975.37
2018-12-01T01:22:05.335Z,975.32
2018-12-01T01:23:04.898Z,975.48
2018-12-01T01:24:05.159Z,975.45
2018-12-01T01:25:04.623Z,975.45
2018-12-01T01:26:04.817Z,975.48
2018-12-01T01:27:04.812Z,975.59
2018-12-01T01:28:09.814Z,975.59
2018-12-01T01:29:05.213Z,975.59
2018-12-01T01:30:04.553Z,975.62
2018-12-01T01:31:05.057Z,975.51
2018-12-01T01:32:04.470Z,975.56
2018-12-01T01:33:04.948Z,975.62
2018-12-01T01:34:04.732Z,975.51
2018-12-01T01:35:04.628Z,975.48
2018-12-01T01:36:05.166Z,975.45
2018-12-01T01:37:04.586Z,975.62
2018-12-01T01:38:04.579Z,975.37
2018-12-01T01:39:04.693Z,975.42
2018-12-01T01:40:04.788Z,975.42
2018-12-01T01:41:04.806Z,975.59
2018-12-01T01:42:05.346Z,975.36
2018-12-01T01:43:04.725Z,975.39
2018-12-01T01:44:04.896Z,975.45
2018-12-01T01:45:04.629Z,975.59
2018-12-01T01:46:05.215Z,975.39
2018-12-01T01:47:04.566Z,975.36
2018-12-01T01:48:04.875Z,975.45
2018-12-01T01:49:04.592Z,975.50
2018-12-01T01:50:04.659Z,975.42
2018-12-01T01:51:04.689Z,975.59
2018-12-01T01:52:04.655Z,975.48
2018-12-01T01:53:04.711Z,975.39
2018-12-01T01:54:04.928Z,975.39
2018-12-01T01:55:04.856Z,975.36
2018-12-01T01:56:05.147Z,975.39
2018-12-01T01:57:05.058Z,975.53
2018-12-01T01:58:04.595Z,975.32
2018-12-01T01:59:04.690Z,975.56
2018-12-01T02:00:04.876Z,975.47
2018-12-01T02:01:04.639Z,975.56
2018-12-01T02:02:04.659Z,975.64
2018-12-01T02:03:04.568Z,975.56
2018-12-01T02:04:05.006Z,975.45
2018-12-01T02:05:04.435Z,975.58
2018-12-01T02:06:04.538Z,975.61
2018-12-01T02:07:04.583Z,975.50
2018-12-01T02:08:04.698Z,975.53
2018-12-01T02:09:05.182Z,975.64
2018-12-01T02:10:04.876Z,975.64
2018-12-01T02:11:04.858Z,975.64
2018-12-01T02:12:04.807Z,975.67
2018-12-01T02:13:05.453Z,975.50
2018-12-01T02:14:04.542Z,975.61
2018-12-01T02:15:05.069Z,975.64
2018-12-01T02:16:04.573Z,975.67
2018-12-01T02:17:05.056Z,975.55
2018-12-01T02:18:04.537Z,975.55
2018-12-01T02:19:04.839Z,975.55
2018-12-01T02:20:05.014Z,975.55
2018-12-01T02:21:04.498Z,975.55
2018-12-01T02:22:04.562Z,975.50
2018-12-01T02:23:04.891Z,975.55
2018-12-01T02:24:04.912Z,975.55
2018-12-01T02:25:04.588Z,975.64
2018-12-01T02:26:04.641Z,975.52
2018-12-01T02:27:04.543Z,975.50
2018-12-01T02:28:09.979Z,975.47
2018-12-01T02:29:05.492Z,975.50
2018-12-01T02:30:04.943Z,975.33
2018-12-01T02:31:05.080Z,975.55
2018-12-01T02:32:04.738Z,975.58
2018-12-01T02:33:04.680Z,975.52
2018-12-01T02:34:05.111Z,975.55
2018-12-01T02:35:04.696Z,975.64
2018-12-01T02:36:05.261Z,975.58
2018-12-01T02:37:04.665Z,975.66
2018-12-01T02:38:04.729Z,975.64
2018-12-01T02:39:04.926Z,975.52
2018-12-01T02:40:04.649Z,975.47
2018-12-01T02:41:04.892Z,975.44
2018-12-01T02:42:04.634Z,975.44
2018-12-01T02:43:04.556Z,975.47
2018-12-01T02:44:05.074Z,975.52
2018-12-01T02:45:04.444Z,975.55
2018-12-01T02:46:05.043Z,975.69
2018-12-01T02:47:04.605Z,975.64
2018-12-01T02:48:05.042Z,975.55
2018-12-01T02:49:04.794Z,975.47
2018-12-01T02:50:04.957Z,975.55
2018-12-01T02:51:04.704Z,975.50
2018-12-01T02:52:05.019Z,975.47
2018-12-01T02:53:04.514Z,975.67
2018-12-01T02:54:04.954Z,975.50
2018-12-01T02:55:04.607Z,975.59
2018-12-01T02:56:04.711Z,975.64
2018-12-01T02:57:04.723Z,975.56
2018-12-01T02:58:04.940Z,975.45
2018-12-01T02:59:04.582Z,975.42
2018-12-01T03:00:04.782Z,975.75
2018-12-01T03:01:05.084Z,975.59
2018-12-01T03:02:04.638Z,975.59
2018-12-01T03:03:04.997Z,975.48
2018-12-01T03:04:04.671Z,975.56
2018-12-01T03:05:05.327Z,975.73
2018-12-01T03:06:04.849Z,975.65
2018-12-01T03:07:04.803Z,975.87
2018-12-01T03:08:04.811Z,975.79
2018-12-01T03:09:05.028Z,975.76
2018-12-01T03:10:04.613Z,975.84
2018-12-01T03:11:04.764Z,975.79
2018-12-01T03:12:05.088Z,975.84
2018-12-01T03:13:04.770Z,975.84
2018-12-01T03:14:04.746Z,975.84
2018-12-01T03:15:04.749Z,975.84
2018-12-01T03:16:04.944Z,975.76
2018-12-01T03:17:04.873Z,975.84
2018-12-01T03:18:05.313Z,975.73
2018-12-01T03:19:04.955Z,975.79
2018-12-01T03:20:04.444Z,975.79
2018-12-01T03:21:05.133Z,975.81
2018-12-01T03:22:04.524Z,975.90
2018-12-01T03:23:04.738Z,975.84
2018-12-01T03:24:04.741Z,975.84
2018-12-01T03:25:04.794Z,975.90
2018-12-01T03:26:05.430Z,975.81
2018-12-01T03:27:04.825Z,975.87
2018-12-01T03:28:10.358Z,975.84
2018-12-01T03:29:04.816Z,975.84
2018-12-01T03:30:04.752Z,975.90
2018-12-01T03:31:05.100Z,975.79
2018-12-01T03:32:04.806Z,975.84
2018-12-01T03:33:04.913Z,975.84
2018-12-01T03:34:04.949Z,976.04
2018-12-01T03:35:05.193Z,975.93
2018-12-01T03:36:04.862Z,976.01
2018-12-01T03:37:04.777Z,975.90
2018-12-01T03:38:04.938Z,975.90
2018-12-01T03:39:04.762Z,975.93
2018-12-01T03:40:04.896Z,976.07
2018-12-01T03:41:04.910Z,975.87
2018-12-01T03:42:04.640Z,975.93
2018-12-01T03:43:05.142Z,975.90
2018-12-01T03:44:04.772Z,976.12
2018-12-01T03:45:04.815Z,976.09
2018-12-01T03:46:04.458Z,975.98
2018-12-01T03:47:05.392Z,975.90
2018-12-01T03:48:04.858Z,976.04
2018-12-01T03:49:05.409Z,975.90
2018-12-01T03:50:05.337Z,975.90
2018-12-01T03:51:04.673Z,976.01
2018-12-01T03:52:05.189Z,975.95
2018-12-01T03:53:05.091Z,975.87
2018-12-01T03:54:05.161Z,975.87
2018-12-01T03:55:04.817Z,975.79
2018-12-01T03:56:04.671Z,975.87
2018-12-01T03:57:04.945Z,975.73
2018-12-01T03:58:05.324Z,975.81
2018-12-01T03:59:04.725Z,975.90
2018-12-01T04:00:04.831Z,975.90
2018-12-01T04:01:04.826Z,975.87
2018-12-01T04:02:04.942Z,975.84
2018-12-01T04:03:04.871Z,975.90
2018-12-01T04:04:04.953Z,975.90
2018-12-01T04:05:05.087Z,975.70
2018-12-01T04:06:04.496Z,975.87
2018-12-01T04:07:04.563Z,975.76
2018-12-01T04:08:05.278Z,975.95
2018-12-01T04:09:04.860Z,975.73
2018-12-01T04:10:04.762Z,975.84
2018-12-01T04:11:05.008Z,975.70
2018-12-01T04:12:04.747Z,975.70
2018-12-01T04:13:04.819Z,975.81
2018-12-01T04:14:05.329Z,975.76
2018-12-01T04:15:04.944Z,975.76
2018-12-01T04:16:05.165Z,975.70
2018-12-01T04:17:05.251Z,975.70
2018-12-01T04:18:04.825Z,975.70
2018-12-01T04:19:04.825Z,975.78
2018-12-01T04:20:04.957Z,975.87
2018-12-01T04:21:04.709Z,976.01
2018-12-01T04:22:04.786Z,975.78
2018-12-01T04:23:04.903Z,975.84
2018-12-01T04:24:05.082Z,975.89
2018-12-01T04:25:05.140Z,975.87
2018-12-01T04:26:04.704Z,975.95
2018-12-01T04:27:04.740Z,975.87
2018-12-01T04:28:04.621Z,975.76
2018-12-01T04:29:04.729Z,975.73
2018-12-01T04:30:04.720Z,975.89
2018-12-01T04:31:04.770Z,975.84
2018-12-01T04:32:04.687Z,975.78
2018-12-01T04:33:04.663Z,975.87
2018-12-01T04:34:04.740Z,975.78
2018-12-01T04:35:04.783Z,975.73
2018-12-01T04:36:04.727Z,975.90
2018-12-01T04:37:05.314Z,975.87
2018-12-01T04:38:04.744Z,975.92
2018-12-01T04:39:05.212Z,975.81
2018-12-01T04:40:04.762Z,975.92
2018-12-01T04:41:05.020Z,975.92
2018-12-01T04:42:05.089Z,975.87
2018-12-01T04:43:09.921Z,975.87
2018-12-01T04:44:05.399Z,975.73
2018-12-01T04:45:05.307Z,975.87
2018-12-01T04:46:04.718Z,975.78
2018-12-01T04:47:05.321Z,975.87
2018-12-01T04:48:04.786Z,975.84
2018-12-01T04:49:05.213Z,975.92
2018-12-01T04:50:04.659Z,975.87
2018-12-01T04:51:04.769Z,975.92
2018-12-01T04:52:04.826Z,975.87
2018-12-01T04:53:04.850Z,976.03
2018-12-01T04:54:05.312Z,975.89
2018-12-01T04:55:05.194Z,975.92
2018-12-01T04:56:04.698Z,975.81
2018-12-01T04:57:05.144Z,975.92
2018-12-01T04:58:05.077Z,976.06
2018-12-01T04:59:04.676Z,975.87
2018-12-01T05:00:04.757Z,975.87
2018-12-01T05:01:04.775Z,975.98
2018-12-01T05:02:04.861Z,975.89
2018-12-01T05:03:04.953Z,975.95
2018-12-01T05:04:04.968Z,975.95
2018-12-01T05:05:04.905Z,975.98
2018-12-01T05:06:05.204Z,975.95
2018-12-01T05:07:04.755Z,975.84
2018-12-01T05:08:04.758Z,976.06
2018-12-01T05:09:04.763Z,976.06
2018-12-01T05:10:05.249Z,975.89
2018-12-01T05:11:04.918Z,976.06
2018-12-01T05:12:04.841Z,976.00
2018-12-01T05:13:05.262Z,976.17
2018-12-01T05:14:04.870Z,976.06
2018-12-01T05:15:05.159Z,975.92
2018-12-01T05:16:04.638Z,976.14
2018-12-01T05:17:05.298Z,976.00
2018-12-01T05:18:05.101Z,976.20
2018-12-01T05:19:05.324Z,976.03
2018-12-01T05:20:04.750Z,976.20
2018-12-01T05:21:04.807Z,976.03
2018-12-01T05:22:05.230Z,976.03
2018-12-01T05:23:04.735Z,976.09
2018-12-01T05:24:04.651Z,976.09
2018-12-01T05:25:05.472Z,976.00
2018-12-01T05:26:05.049Z,976.06
2018-12-01T05:27:04.751Z,976.06
2018-12-01T05:28:05.184Z,976.06
2018-12-01T05:29:04.856Z,976.06
2018-12-01T05:30:09.966Z,976.08
2018-12-01T05:31:05.450Z,976.17
2018-12-01T05:32:04.883Z,976.14
2018-12-01T05:33:04.800Z,976.17
2018-12-01T05:34:04.960Z,976.25
2018-12-01T05:35:05.251Z,976.08
2018-12-01T05:36:04.938Z,976.11
2018-12-01T05:37:05.213Z,976.14
2018-12-01T05:38:04.615Z,976.22
2018-12-01T05:39:04.816Z,976.33
2018-12-01T05:40:07.253Z,976.22
2018-12-01T05:41:05.078Z,976.27
2018-12-01T05:42:04.770Z,976.25
2018-12-01T05:43:05.229Z,976.25
2018-12-01T05:44:04.712Z,976.25
2018-12-01T05:45:04.847Z,976.30
2018-12-01T05:46:04.977Z,976.24
2018-12-01T05:47:05.119Z,976.30
2018-12-01T05:48:05.146Z,976.41
2018-12-01T05:49:04.735Z,976.30
2018-12-01T05:50:04.688Z,976.47
2018-12-01T05:51:05.233Z,976.27
2018-12-01T05:52:07.353Z,976.27
2018-12-01T05:53:04.910Z,976.24
2018-12-01T05:54:04.820Z,976.33
2018-12-01T05:55:05.373Z,976.27
2018-12-01T05:56:04.678Z,976.30
2018-12-01T05:57:05.309Z,976.27
2018-12-01T05:58:05.261Z,976.33
2018-12-01T05:59:04.927Z,976.44
2018-12-01T06:00:04.847Z,976.30
2018-12-01T06:01:05.326Z,976.21
2018-12-01T06:02:04.769Z,976.33
2018-12-01T06:03:04.857Z,976.27
2018-12-01T06:04:04.783Z,976.24
2018-12-01T06:05:05.475Z,976.35
2018-12-01T06:06:04.799Z,976.35
2018-12-01T06:07:05.434Z,976.32
2018-12-01T06:08:05.098Z,976.38
2018-12-01T06:09:05.055Z,976.30
2018-12-01T06:10:04.984Z,976.35
2018-12-01T06:11:05.422Z,976.35
2018-12-01T06:12:04.842Z,976.30
2018-12-01T06:13:04.740Z,976.35
2018-12-01T06:14:05.062Z,976.35
2018-12-01T06:15:05.363Z,976.43
2018-12-01T06:16:05.109Z,976.29
2018-12-01T06:17:05.073Z,976.32
2018-12-01T06:18:05.357Z,976.32
2018-12-01T06:19:04.907Z,976.43
2018-12-01T06:20:05.262Z,976.38
2018-12-01T06:21:04.765Z,976.32
2018-12-01T06:22:04.636Z,976.38
2018-12-01T06:23:04.677Z,976.40
2018-12-01T06:24:05.221Z,976.26
2018-12-01T06:25:04.623Z,976.35
2018-12-01T06:26:04.711Z,976.35
2018-12-01T06:27:04.845Z,976.32
2018-12-01T06:28:10.024Z,976.49
2018-12-01T06:29:04.485Z,976.38
2018-12-01T06:30:05.295Z,976.49
2018-12-01T06:31:04.837Z,976.60
2018-12-01T06:32:04.843Z,976.57
2018-12-01T06:33:04.719Z,976.51
2018-12-01T06:34:04.804Z,976.54
2018-12-01T06:35:04.750Z,976.60
2018-12-01T06:36:04.710Z,976.62
2018-12-01T06:37:04.894Z,976.60
2018-12-01T06:38:04.476Z,976.57
2018-12-01T06:39:04.553Z,976.62
2018-12-01T06:40:04.438Z,976.62
2018-12-01T06:41:04.475Z,976.54
2018-12-01T06:42:04.932Z,976.57
2018-12-01T06:43:05.462Z,976.68
2018-12-01T06:44:04.783Z,976.57
2018-12-01T06:45:05.235Z,976.57
2018-12-01T06:46:04.804Z,976.65
2018-12-01T06:47:04.860Z,976.65
2018-12-01T06:48:10.321Z,976.65
2018-12-01T06:49:04.759Z,976.65
2018-12-01T06:50:04.945Z,976.68
2018-12-01T06:51:04.884Z,976.68
2018-12-01T06:52:05.394Z,976.65
2018-12-01T06:53:05.101Z,976.62
2018-12-01T06:54:05.482Z,976.54
2018-12-01T06:55:05.426Z,976.60
2018-12-01T06:56:04.741Z,976.74
2018-12-01T06:57:04.924Z,976.62
2018-12-01T06:58:04.910Z,976.74
2018-12-01T06:59:05.368Z,976.65
2018-12-01T07:00:05.114Z,976.62
2018-12-01T07:01:04.984Z,976.75
2018-12-01T07:02:05.262Z,976.68
2018-12-01T07:03:04.669Z,976.60
2018-12-01T07:04:04.763Z,976.74
2018-12-01T07:05:05.263Z,976.75
2018-12-01T07:06:04.801Z,976.71
2018-12-01T07:07:04.852Z,976.87
2018-12-01T07:08:05.379Z,976.78
2018-12-01T07:09:05.003Z,976.68
2018-12-01T07:10:04.929Z,976.68
2018-12-01T07:11:04.983Z,976.81
2018-12-01T07:12:04.589Z,976.71
2018-12-01T07:13:04.609Z,976.74
2018-12-01T07:14:04.611Z,976.84
2018-12-01T07:15:04.579Z,976.81
2018-12-01T07:16:04.638Z,976.87
2018-12-01T07:17:04.598Z,976.74
2018-12-01T07:18:05.033Z,976.98
2018-12-01T07:19:04.994Z,976.81
2018-12-01T07:20:05.078Z,976.95
2018-12-01T07:21:05.392Z,976.81
2018-12-01T07:22:04.839Z,976.92
2018-12-01T07:23:05.375Z,976.87
2018-12-01T07:24:04.917Z,976.95
2018-12-01T07:25:04.870Z,976.75
2018-12-01T07:26:05.276Z,976.92
2018-12-01T07:27:04.876Z,976.87
2018-12-01T07:28:05.009Z,976.89
2018-12-01T07:29:05.415Z,976.75
2018-12-01T07:30:04.605Z,976.92
2018-12-01T07:31:04.838Z,976.86
2018-12-01T07:32:05.271Z,976.89
2018-12-01T07:33:04.963Z,976.89
2018-12-01T07:34:04.957Z,976.89
2018-12-01T07:35:05.298Z,976.86
2018-12-01T07:36:05.440Z,976.92
2018-12-01T07:37:05.008Z,976.97
2018-12-01T07:38:04.950Z,977.03
2018-12-01T07:39:04.934Z,977.03
2018-12-01T07:40:04.607Z,976.97
2018-12-01T07:41:04.486Z,976.92
2018-12-01T07:42:05.337Z,977.03
2018-12-01T07:43:04.820Z,976.89
2018-12-01T07:44:05.011Z,977.00
2018-12-01T07:45:04.735Z,977.00
2018-12-01T07:46:04.981Z,976.89
2018-12-01T07:47:05.017Z,976.88
2018-12-01T07:48:05.075Z,977.05
2018-12-01T07:49:05.451Z,977.02
2018-12-01T07:50:04.741Z,976.97
2018-12-01T07:51:05.448Z,976.91
2018-12-01T07:52:04.899Z,976.94
2018-12-01T07:53:05.057Z,976.94
2018-12-01T07:54:05.258Z,976.91
2018-12-01T07:55:04.758Z,976.94
2018-12-01T07:56:05.000Z,977.05
2018-12-01T07:57:05.019Z,977.02
2018-12-01T07:58:05.045Z,976.96
2018-12-01T07:59:05.084Z,976.93
2018-12-01T08:00:05.220Z,976.99
2018-12-01T08:01:05.188Z,977.07
2018-12-01T08:02:05.432Z,976.99
2018-12-01T08:03:04.467Z,977.04
2018-12-01T08:04:04.714Z,976.99
2018-12-01T08:05:05.375Z,977.10
2018-12-01T08:06:04.776Z,977.13
2018-12-01T08:07:04.878Z,977.04
2018-12-01T08:08:04.987Z,977.07
2018-12-01T08:09:04.593Z,977.01
2018-12-01T08:10:04.842Z,977.21
2018-12-01T08:11:04.961Z,977.15
2018-12-01T08:12:04.958Z,977.12
2018-12-01T08:13:05.167Z,977.09
2018-12-01T08:14:04.675Z,977.15
2018-12-01T08:15:04.936Z,977.07
2018-12-01T08:16:04.533Z,977.18
2018-12-01T08:17:04.646Z,977.09
2018-12-01T08:18:05.391Z,977.12
2018-12-01T08:19:04.900Z,977.04
2018-12-01T08:20:05.376Z,977.06
2018-12-01T08:21:05.005Z,977.26
2018-12-01T08:22:05.326Z,977.15
2018-12-01T08:23:05.256Z,976.98
2018-12-01T08:24:04.739Z,977.00
2018-12-01T08:25:04.937Z,976.97
2018-12-01T08:26:04.563Z,976.92
2018-12-01T08:27:04.631Z,977.00
2018-12-01T08:28:10.335Z,977.06
2018-12-01T08:29:04.736Z,976.86
2018-12-01T08:30:05.139Z,977.03
2018-12-01T08:31:05.491Z,976.91
2018-12-01T08:32:04.941Z,976.97
2018-12-01T08:33:05.007Z,977.05
2018-12-01T08:34:05.064Z,977.02
2018-12-01T08:35:04.981Z,976.94
2018-12-01T08:36:05.471Z,977.02
2018-12-01T08:37:04.743Z,977.05
2018-12-01T08:38:04.815Z,977.05
2018-12-01T08:39:04.947Z,977.05
2018-12-01T08:40:04.906Z,977.05
2018-12-01T08:41:05.182Z,976.93
2018-12-01T08:42:05.134Z,976.99
2018-12-01T08:43:04.477Z,976.93
2018-12-01T08:44:04.543Z,977.21
2018-12-01T08:45:04.620Z,977.04
2018-12-01T08:46:05.539Z,976.93
2018-12-01T08:47:04.837Z,976.96
2018-12-01T08:48:04.935Z,976.93
2018-12-01T08:49:05.453Z,976.84
2018-12-01T08:50:05.164Z,977.04
2018-12-01T08:51:05.064Z,977.01
2018-12-01T08:52:05.013Z,977.01
2018-12-01T08:53:05.210Z,977.09
2018-12-01T08:54:05.148Z,976.98
2018-12-01T08:55:05.323Z,977.06
2018-12-01T08:56:04.867Z,977.09
2018-12-01T08:57:05.016Z,976.94
2018-12-01T08:58:05.040Z,977.06
2018-12-01T08:59:10.135Z,976.97
2018-12-01T09:00:04.551Z,977.00
2018-12-01T09:01:05.469Z,977.05
2018-12-01T09:02:05.046Z,976.94
2018-12-01T09:03:04.831Z,977.02
2018-12-01T09:04:04.745Z,976.90
2018-12-01T09:05:04.995Z,976.99
2018-12-01T09:06:05.065Z,977.01
2018-12-01T09:07:05.383Z,976.98
2018-12-01T09:08:05.462Z,977.12
2018-12-01T09:09:04.857Z,977.01
2018-12-01T09:10:05.637Z,976.98
2018-12-01T09:11:04.764Z,976.92
2018-12-01T09:12:05.533Z,976.97
2018-12-01T09:13:04.830Z,977.03
2018-12-01T09:14:05.441Z,977.00
2018-12-01T09:15:04.917Z,977.00
2018-12-01T09:16:05.093Z,976.94
2018-12-01T09:17:05.278Z,976.99
2018-12-01T09:18:05.212Z,977.02
2018-12-01T09:19:05.222Z,976.93
2018-12-01T09:20:05.527Z,976.96
2018-12-01T09:21:04.962Z,976.99
2018-12-01T09:22:04.865Z,976.98
2018-12-01T09:23:05.078Z,977.12
2018-12-01T09:24:05.124Z,977.18
2018-12-01T09:25:05.163Z,976.89
2018-12-01T09:26:05.237Z,977.00
2018-12-01T09:27:05.259Z,976.83
2018-12-01T09:28:09.841Z,977.02
2018-12-01T09:29:05.205Z,976.91
2018-12-01T09:30:05.099Z,976.94
2018-12-01T09:31:05.407Z,976.93
2018-12-01T09:32:05.272Z,976.88
2018-12-01T09:33:05.116Z,976.96
2018-12-01T09:34:05.496Z,976.98
2018-12-01T09:35:05.374Z,976.81
2018-12-01T09:36:04.945Z,977.04
2018-12-01T09:37:05.208Z,976.78
2018-12-01T09:38:04.843Z,976.92
2018-12-01T09:39:05.341Z,976.73
2018-12-01T09:40:05.464Z,976.89
2018-12-01T09:41:04.779Z,976.94
2018-12-01T09:42:04.905Z,976.80
2018-12-01T09:43:04.878Z,976.83
2018-12-01T09:44:04.483Z,976.80
2018-12-01T09:45:05.371Z,976.94
2018-12-01T09:46:05.128Z,976.88
2018-12-01T09:47:04.497Z,976.79
2018-12-01T09:48:09.613Z,976.77
2018-12-01T09:49:04.986Z,976.85
2018-12-01T09:50:04.988Z,976.79
2018-12-01T09:51:05.312Z,976.76
2018-12-01T09:52:05.206Z,976.79
2018-12-01T09:53:05.248Z,976.93
2018-12-01T09:54:05.041Z,976.87
2018-12-01T09:55:05.322Z,976.96
2018-12-01T09:56:05.449Z,976.90
2018-12-01T09:57:04.765Z,976.90
2018-12-01T09:58:04.715Z,976.84
2018-12-01T09:59:04.700Z,977.06
2018-12-01T10:00:04.828Z,976.84
2018-12-01T10:01:04.796Z,976.86
2018-12-01T10:02:04.945Z,977.00
2018-12-01T10:03:04.932Z,977.00
2018-12-01T10:04:05.397Z,976.88
2018-12-01T10:05:04.958Z,977.16
2018-12-01T10:06:04.488Z,977.02
2018-12-01T10:07:04.466Z,977.13
2018-12-01T10:08:04.534Z,976.98
2018-12-01T10:09:04.494Z,977.09
2018-12-01T10:10:05.451Z,977.09
2018-12-01T10:11:04.892Z,977.01
2018-12-01T10:12:05.513Z,977.00
2018-12-01T10:13:05.052Z,977.00
2018-12-01T10:14:05.001Z,977.05
2018-12-01T10:15:04.952Z,977.03
2018-12-01T10:16:05.085Z,976.91
2018-12-01T10:17:05.702Z,976.94
2018-12-01T10:18:05.274Z,976.96
2018-12-01T10:19:05.267Z,977.05
2018-12-01T10:20:05.310Z,977.08
2018-12-01T10:21:05.131Z,976.96
2018-12-01T10:22:04.569Z,977.13
2018-12-01T10:23:04.637Z,976.99
2018-12-01T10:24:04.664Z,976.96
2018-12-01T10:25:04.551Z,977.02
2018-12-01T10:26:04.532Z,977.05
2018-12-01T10:27:04.508Z,977.02
2018-12-01T10:28:04.540Z,977.02
2018-12-01T10:29:05.443Z,977.19
2018-12-01T10:30:05.334Z,976.93
2018-12-01T10:31:04.851Z,976.88
2018-12-01T10:32:04.813Z,976.99
2018-12-01T10:33:04.782Z,976.93
2018-12-01T10:34:04.799Z,976.93
2018-12-01T10:35:04.988Z,977.02
2018-12-01T10:36:05.183Z,976.90
2018-12-01T10:37:05.396Z,976.93
2018-12-01T10:38:10.140Z,976.96
2018-12-01T10:39:04.506Z,976.93
2018-12-01T10:40:05.204Z,976.96
2018-12-01T10:41:04.464Z,976.91
2018-12-01T10:42:04.453Z,976.99
2018-12-01T10:43:04.824Z,976.96
2018-12-01T10:44:04.892Z,977.10
2018-12-01T10:45:04.839Z,976.94
2018-12-01T10:46:04.908Z,976.91
2018-12-01T10:47:04.507Z,976.91
2018-12-01T10:48:04.717Z,976.97
2018-12-01T10:49:04.562Z,976.91
2018-12-01T10:50:04.517Z,976.91
2018-12-01T10:51:04.544Z,976.85
2018-12-01T10:52:04.466Z,976.83
2018-12-01T10:53:04.544Z,976.94
2018-12-01T10:54:04.684Z,976.80
2018-12-01T10:55:04.972Z,976.80
2018-12-01T10:56:05.187Z,976.80
2018-12-01T10:57:05.062Z,976.74
2018-12-01T10:58:05.226Z,976.77
2018-12-01T10:59:05.455Z,976.67
2018-12-01T11:00:04.553Z,976.70
2018-12-01T11:01:04.886Z,976.61
2018-12-01T11:02:04.739Z,976.70
2018-12-01T11:03:04.479Z,976.56
2018-12-01T11:04:04.663Z,976.53
2018-12-01T11:05:04.684Z,976.67
2018-12-01T11:06:04.740Z,976.67
2018-12-01T11:07:04.917Z,976.77
2018-12-01T11:08:05.090Z,976.64
2018-12-01T11:09:04.962Z,976.64
2018-12-01T11:10:04.587Z,976.80
2018-12-01T11:11:04.495Z,976.59
2018-12-01T11:12:04.670Z,976.70
2018-12-01T11:13:04.663Z,976.64
2018-12-01T11:14:04.847Z,976.58
2018-12-01T11:15:04.953Z,976.70
2018-12-01T11:16:05.059Z,976.58
2018-12-01T11:17:04.579Z,976.64
2018-12-01T11:18:04.632Z,976.61
2018-12-01T11:19:04.630Z,976.58
2018-12-01T11:20:04.979Z,976.69
2018-12-01T11:21:04.484Z,976.64
2018-12-01T11:22:04.694Z,976.74
2018-12-01T11:23:04.737Z,976.72
2018-12-01T11:24:04.942Z,976.64
2018-12-01T11:25:05.145Z,976.64
2018-12-01T11:26:05.158Z,976.72
2018-12-01T11:27:04.556Z,976.69
2018-12-01T11:28:09.676Z,976.64
2018-12-01T11:29:05.176Z,976.61
2018-12-01T11:30:05.097Z,976.80
2018-12-01T11:31:05.136Z,976.64
2018-12-01T11:32:04.610Z,976.55
2018-12-01T11:33:04.576Z,976.58
2018-12-01T11:34:04.638Z,976.50
2018-12-01T11:35:04.921Z,976.64
2018-12-01T11:36:04.976Z,976.58
2018-12-01T11:37:05.153Z,976.49
2018-12-01T11:38:04.762Z,976.58
2018-12-01T11:39:04.893Z,976.58
2018-12-01T11:40:04.916Z,976.61
2018-12-01T11:41:04.810Z,976.58
2018-12-01T11:42:04.580Z,976.69
2018-12-01T11:43:04.599Z,976.66
2018-12-01T11:44:04.681Z,976.55
2018-12-01T11:45:04.635Z,976.52
2018-12-01T11:46:04.728Z,976.55
2018-12-01T11:47:04.507Z,976.52
2018-12-01T11:48:04.664Z,976.63
2018-12-01T11:49:04.679Z,976.61
2018-12-01T11:50:04.847Z,976.61
2018-12-01T11:51:05.044Z,976.60
2018-12-01T11:52:04.846Z,976.74
2018-12-01T11:53:04.891Z,976.60
2018-12-01T11:54:05.012Z,976.58
2018-12-01T11:55:04.938Z,976.57
2018-12-01T11:56:04.991Z,976.55
2018-12-01T11:57:04.546Z,976.52
2018-12-01T11:58:04.684Z,976.40
2018-12-01T11:59:04.866Z,976.43
2018-12-01T12:00:04.696Z,976.57
2018-12-01T12:01:04.564Z,976.57
2018-12-01T12:02:04.545Z,976.54
2018-12-01T12:03:04.647Z,976.52
2018-12-01T12:04:04.819Z,976.63
2018-12-01T12:05:04.553Z,976.63
2018-12-01T12:06:04.845Z,976.76
2018-12-01T12:07:04.770Z,976.69
2018-12-01T12:08:05.213Z,976.85
2018-12-01T12:09:04.951Z,976.63
2018-12-01T12:10:05.240Z,976.74
2018-12-01T12:11:04.678Z,976.91
2018-12-01T12:12:04.909Z,976.69
2018-12-01T12:13:05.287Z,976.74
2018-12-01T12:14:05.451Z,976.74
2018-12-01T12:15:04.730Z,976.69
2018-12-01T12:16:05.463Z,976.82
2018-12-01T12:17:05.496Z,976.76
2018-12-01T12:18:05.251Z,976.69
2018-12-01T12:19:05.271Z,976.63
2018-12-01T12:20:04.737Z,976.66
2018-12-01T12:21:04.590Z,976.57
2018-12-01T12:22:05.028Z,976.69
2018-12-01T12:23:04.620Z,976.57
2018-12-01T12:24:04.653Z,976.65
2018-12-01T12:25:04.599Z,976.65
2018-12-01T12:26:04.516Z,976.71
2018-12-01T12:27:04.662Z,976.63
2018-12-01T12:28:09.904Z,976.76